Time;durP1;ratioP1;P1;durP2;ratioP2;P2;SDS_P1;SDS_P2;PMS_P1;PMS_P2;Temp;Humidity;BMP_temperature;BMP_pressure;BME280_temperature;BME280_humidity;BME280_pressure;Samples;Min_cycle;Max_cycle;Signal;HPM_P1;HPM_P2
2022/03/30 00:01:29;;;;;;;27.77;14.43;;;8.70;99.90;;;;;;4964899;28;20053;-64
2022/03/30 00:03:55;;;;;;;33.03;14.80;;;8.70;99.90;;;;;;4970744;28;20391;-64
2022/03/30 00:06:20;;;;;;;27.38;15.18;;;8.60;99.90;;;;;;4954205;28;20109;-64
2022/03/30 00:08:46;;;;;;;28.27;13.38;;;8.60;99.90;;;;;;4955446;28;20132;-64
2022/03/30 00:11:11;;;;;;;29.05;12.93;;;8.60;99.90;;;;;;4964022;28;20061;-64
2022/03/30 00:13:39;;;;;;;35.95;13.40;;;8.60;99.90;;;;;;4960630;28;20138;-64
2022/03/30 00:16:06;;;;;;;34.65;13.80;;;8.50;99.90;;;;;;4972139;28;20034;-64
2022/03/30 00:18:32;;;;;;;34.47;14.98;;;8.60;99.90;;;;;;4953676;28;20039;-64
2022/03/30 00:20:59;;;;;;;34.08;15.38;;;8.60;99.90;;;;;;4980557;28;20082;-64
2022/03/30 00:23:24;;;;;;;23.05;13.95;;;8.60;99.90;;;;;;4963012;28;20039;-64
2022/03/30 00:25:50;;;;;;;35.13;14.88;;;8.70;99.90;;;;;;4964225;28;20453;-64
2022/03/30 00:28:16;;;;;;;34.17;16.65;;;8.70;99.90;;;;;;4969813;28;20055;-64
2022/03/30 00:30:41;;;;;;;26.75;12.90;;;8.70;99.90;;;;;;4960881;28;20078;-64
2022/03/30 00:33:07;;;;;;;24.98;13.00;;;8.60;99.90;;;;;;4976480;28;20155;-64
2022/03/30 00:35:33;;;;;;;29.70;14.38;;;8.70;99.90;;;;;;4962210;28;20404;-64
2022/03/30 00:37:58;;;;;;;24.85;12.77;;;8.70;99.90;;;;;;4963461;28;20522;-64
2022/03/30 00:40:25;;;;;;;29.48;13.18;;;8.70;99.90;;;;;;4977832;28;20045;-64
2022/03/30 00:42:51;;;;;;;22.33;12.93;;;8.80;99.90;;;;;;4961076;28;20070;-64
2022/03/30 00:45:21;;;;;;;27.85;14.90;;;8.60;99.90;;;;;;4957327;28;20058;-64
2022/03/30 00:47:47;;;;;;;28.35;14.48;;;8.60;99.90;;;;;;4963228;28;20043;-64
2022/03/30 00:50:16;;;;;;;29.63;14.43;;;8.50;99.90;;;;;;4963538;28;20487;-64
2022/03/30 00:52:43;;;;;;;36.13;16.13;;;8.50;99.90;;;;;;4966169;28;20035;-64
2022/03/30 00:55:09;;;;;;;28.30;15.88;;;8.50;99.90;;;;;;4963425;28;20454;-64
2022/03/30 00:57:36;;;;;;;25.90;14.55;;;8.50;99.90;;;;;;4963318;28;20054;-64
2022/03/30 01:00:08;;;;;;;33.90;14.40;;;8.50;99.90;;;;;;4964050;28;20399;-64
2022/03/30 01:02:37;;;;;;;32.95;15.85;;;8.50;99.90;;;;;;4968674;28;20097;-64
2022/03/30 01:05:04;;;;;;;31.00;15.98;;;8.40;99.90;;;;;;4970007;28;20105;-64
2022/03/30 01:07:29;;;;;;;28.95;15.80;;;8.40;99.90;;;;;;4966778;28;20043;-64
2022/03/30 01:09:55;;;;;;;29.90;16.77;;;8.40;99.90;;;;;;4969386;28;20104;-64
2022/03/30 01:12:21;;;;;;;30.83;16.45;;;8.40;99.90;;;;;;4961764;28;20046;-64
2022/03/30 01:14:47;;;;;;;30.50;15.30;;;8.40;99.90;;;;;;4964920;28;20053;-64
2022/03/30 01:17:13;;;;;;;27.50;15.57;;;8.40;99.90;;;;;;4963399;28;20581;-64
2022/03/30 01:19:38;;;;;;;33.53;16.42;;;8.50;99.90;;;;;;4962269;28;20105;-64
2022/03/30 01:22:07;;;;;;;26.23;13.85;;;8.50;99.90;;;;;;4979045;28;20401;-64
2022/03/30 01:24:33;;;;;;;27.20;12.32;;;8.60;99.90;;;;;;4966477;28;20169;-64
2022/03/30 01:26:59;;;;;;;16.50;9.98;;;8.60;99.90;;;;;;4974461;28;20042;-64
2022/03/30 01:32:25;;;;;;;17.88;6.63;;;8.60;99.90;;;;;;4975261;28;20062;-64
2022/03/30 01:34:51;;;;;;;12.75;4.53;;;8.70;99.90;;;;;;4971028;28;20129;-64
2022/03/30 01:37:17;;;;;;;8.48;3.50;;;8.70;99.90;;;;;;4968147;28;20144;-64
2022/03/30 01:39:42;;;;;;;6.88;3.25;;;8.70;99.90;;;;;;4969861;28;20066;-64
2022/03/30 01:42:09;;;;;;;7.07;2.63;;;8.70;99.90;;;;;;4971755;28;20150;-64
2022/03/30 01:44:36;;;;;;;7.82;2.75;;;8.70;99.90;;;;;;4961841;28;20043;-64
2022/03/30 01:47:02;;;;;;;8.02;3.17;;;8.70;99.90;;;;;;4972313;28;20043;-64
2022/03/30 01:49:29;;;;;;;10.20;2.70;;;8.70;99.90;;;;;;4974651;28;20049;-64
2022/03/30 01:51:56;;;;;;;4.20;2.25;;;8.60;99.90;;;;;;4965768;28;20059;-64
2022/03/30 01:54:24;;;;;;;7.80;3.17;;;8.70;99.90;;;;;;4963790;28;20442;-64
2022/03/30 01:56:52;;;;;;;7.78;3.15;;;8.60;99.90;;;;;;4976973;28;20568;-64
2022/03/30 01:59:18;;;;;;;6.80;1.90;;;8.60;99.90;;;;;;4966492;28;20047;-67
2022/03/30 02:01:44;;;;;;;6.10;2.67;;;8.60;99.90;;;;;;4966157;28;20053;-64
2022/03/30 02:04:10;;;;;;;4.78;2.05;;;8.50;99.90;;;;;;4972593;28;20178;-64
2022/03/30 02:06:37;;;;;;;4.60;2.40;;;8.50;99.90;;;;;;4969124;28;20082;-64
2022/03/30 02:09:03;;;;;;;7.97;2.63;;;8.50;99.90;;;;;;4964416;28;20475;-64
2022/03/30 02:11:29;;;;;;;5.55;2.00;;;8.30;99.90;;;;;;4976806;28;20066;-64
2022/03/30 02:13:55;;;;;;;5.53;1.75;;;8.40;99.90;;;;;;4971468;28;20058;-64
2022/03/30 02:16:22;;;;;;;5.50;1.92;;;8.40;99.90;;;;;;4978569;28;20162;-64
2022/03/30 02:18:48;;;;;;;6.93;3.13;;;8.40;99.90;;;;;;4995175;28;20100;-63
2022/03/30 02:21:15;;;;;;;10.57;6.88;;;8.30;99.90;;;;;;4958358;28;20402;-63
2022/03/30 02:23:41;;;;;;;9.35;3.75;;;8.40;99.90;;;;;;4960728;28;20059;-63
2022/03/30 02:26:07;;;;;;;3.53;1.70;;;8.30;99.90;;;;;;4974393;28;20097;-63
2022/03/30 02:28:33;;;;;;;1.75;0.95;;;8.40;99.90;;;;;;4972448;28;20816;-63
2022/03/30 02:30:58;;;;;;;3.42;1.25;;;8.30;99.90;;;;;;4967929;28;20462;-63
2022/03/30 02:33:24;;;;;;;3.72;0.73;;;8.40;99.90;;;;;;4962605;28;20070;-63
2022/03/30 02:35:51;;;;;;;5.18;1.08;;;8.40;99.90;;;;;;4959566;28;20081;-63
2022/03/30 02:38:17;;;;;;;3.15;0.90;;;8.30;99.90;;;;;;4975307;28;20431;-63
2022/03/30 02:40:43;;;;;;;1.25;0.65;;;8.20;99.90;;;;;;4969000;28;20142;-63
2022/03/30 02:43:09;;;;;;;3.85;0.98;;;8.30;99.90;;;;;;4962141;28;20047;-63
2022/03/30 02:45:34;;;;;;;7.20;1.65;;;8.30;99.90;;;;;;4964042;28;20047;-63
2022/03/30 02:48:18;;;;;;;1.60;0.68;;;8.20;99.90;;;;;;4970598;28;20544;-63
2022/03/30 02:50:47;;;;;;;3.78;0.80;;;8.10;99.90;;;;;;4968777;28;20035;-63
2022/03/30 02:53:13;;;;;;;2.70;0.55;;;8.10;99.90;;;;;;4966647;28;20085;-63
2022/03/30 02:55:39;;;;;;;2.10;0.88;;;8.10;99.90;;;;;;4964883;28;20057;-64
2022/03/30 02:58:04;;;;;;;3.10;0.82;;;8.10;99.90;;;;;;4975402;28;20046;-63
2022/03/30 03:00:30;;;;;;;2.10;0.50;;;8.10;99.90;;;;;;4973260;28;20138;-64
2022/03/30 03:02:56;;;;;;;2.15;0.75;;;8.00;99.90;;;;;;4971667;28;20043;-63
2022/03/30 03:05:22;;;;;;;1.17;0.60;;;7.90;99.90;;;;;;4989618;28;20047;-63
2022/03/30 03:07:47;;;;;;;2.70;0.80;;;8.00;99.90;;;;;;4986540;28;20540;-64
2022/03/30 03:10:13;;;;;;;2.45;0.52;;;7.90;99.90;;;;;;4975137;28;20051;-63
2022/03/30 03:12:39;;;;;;;4.18;1.27;;;8.00;99.90;;;;;;4966201;28;20034;-63
2022/03/30 03:15:05;;;;;;;2.42;0.70;;;8.00;99.90;;;;;;4967962;28;20133;-63
2022/03/30 03:17:30;;;;;;;5.32;0.77;;;8.00;99.90;;;;;;4951750;28;20051;-63
2022/03/30 03:19:56;;;;;;;1.55;0.40;;;8.00;99.90;;;;;;4958110;28;20043;-63
2022/03/30 03:22:21;;;;;;;1.88;0.93;;;7.90;99.90;;;;;;4961910;28;20046;-64
2022/03/30 03:24:47;;;;;;;2.10;0.68;;;7.90;99.90;;;;;;4981838;28;20081;-63
2022/03/30 03:27:12;;;;;;;2.17;0.60;;;8.00;99.90;;;;;;4962474;28;20114;-63
2022/03/30 03:29:38;;;;;;;7.70;1.35;;;7.90;99.90;;;;;;4970586;28;20038;-63
2022/03/30 03:32:05;;;;;;;2.67;0.70;;;7.90;99.90;;;;;;4976524;28;20042;-64
2022/03/30 03:34:31;;;;;;;2.67;1.05;;;8.00;99.90;;;;;;4968825;28;20055;-64
2022/03/30 03:36:56;;;;;;;1.23;0.50;;;7.90;99.90;;;;;;4962932;28;20066;-63
2022/03/30 03:39:22;;;;;;;3.70;0.68;;;7.90;99.90;;;;;;4966525;28;20047;-63
2022/03/30 03:41:47;;;;;;;4.85;0.95;;;7.90;99.90;;;;;;4965408;28;20141;-64
2022/03/30 03:44:13;;;;;;;2.28;0.80;;;7.90;99.90;;;;;;4955430;28;20054;-63
2022/03/30 03:46:38;;;;;;;1.60;0.68;;;7.80;99.90;;;;;;4964408;28;20101;-64
2022/03/30 03:49:04;;;;;;;2.13;0.57;;;7.80;99.90;;;;;;4961693;28;20039;-63
2022/03/30 03:51:30;;;;;;;2.28;0.63;;;7.80;99.90;;;;;;4969438;28;20056;-63
2022/03/30 03:53:56;;;;;;;0.70;0.30;;;7.90;99.90;;;;;;4959128;28;20129;-64
2022/03/30 03:56:21;;;;;;;2.00;0.85;;;7.80;99.90;;;;;;4955082;28;20399;-63
2022/03/30 03:58:49;;;;;;;5.53;0.70;;;7.80;99.90;;;;;;4980792;28;20498;-63
2022/03/30 04:01:15;;;;;;;5.28;1.15;;;7.70;99.90;;;;;;4962562;28;20043;-63
2022/03/30 04:03:42;;;;;;;2.30;0.70;;;7.70;99.90;;;;;;5017024;28;20077;-63
2022/03/30 04:06:08;;;;;;;2.88;0.85;;;7.70;99.90;;;;;;4972907;28;20050;-64
2022/03/30 04:08:34;;;;;;;5.03;0.93;;;7.70;99.90;;;;;;4970511;28;20129;-64
2022/03/30 04:11:00;;;;;;;1.70;0.90;;;7.60;99.90;;;;;;4961488;28;20043;-63
2022/03/30 04:13:26;;;;;;;1.88;1.13;;;7.60;99.90;;;;;;4968282;28;20426;-63
2022/03/30 04:15:51;;;;;;;1.92;0.80;;;7.70;99.90;;;;;;4976271;28;20043;-64
2022/03/30 04:18:17;;;;;;;7.18;1.02;;;7.60;99.90;;;;;;4964339;28;20043;-63
2022/03/30 04:20:44;;;;;;;4.97;0.98;;;7.60;99.90;;;;;;4960882;28;20039;-63
2022/03/30 04:23:10;;;;;;;1.83;1.27;;;7.60;99.90;;;;;;4962078;28;20062;-64
2022/03/30 04:25:36;;;;;;;5.20;0.90;;;7.50;99.90;;;;;;4964832;28;20043;-64
2022/03/30 04:28:01;;;;;;;5.22;2.80;;;7.50;99.90;;;;;;4964698;28;20087;-64
2022/03/30 04:30:27;;;;;;;3.42;1.52;;;7.40;99.90;;;;;;4964590;28;20049;-63
2022/03/30 04:32:53;;;;;;;3.50;1.15;;;7.40;99.90;;;;;;4971903;28;20067;-64
2022/03/30 04:35:24;;;;;;;1.63;0.90;;;7.40;99.90;;;;;;4968452;28;20046;-64
2022/03/30 04:37:52;;;;;;;6.82;1.70;;;7.30;99.90;;;;;;4962587;28;20055;-64
2022/03/30 04:40:17;;;;;;;5.60;1.05;;;7.20;99.90;;;;;;4976682;28;20061;-64
2022/03/30 04:42:43;;;;;;;4.07;1.00;;;7.20;99.90;;;;;;4969303;28;20090;-63
2022/03/30 04:45:09;;;;;;;4.47;1.38;;;7.20;99.90;;;;;;4971490;28;20114;-64
2022/03/30 04:47:34;;;;;;;4.82;1.63;;;7.20;99.90;;;;;;4957758;28;20150;-64
2022/03/30 04:50:00;;;;;;;2.13;1.10;;;7.10;99.90;;;;;;4968188;28;20548;-64
2022/03/30 04:52:26;;;;;;;6.68;1.55;;;7.10;99.90;;;;;;4977475;28;20467;-64
2022/03/30 04:54:51;;;;;;;6.50;2.10;;;7.10;99.90;;;;;;4969905;28;20051;-64
2022/03/30 04:57:17;;;;;;;5.07;1.55;;;7.00;99.90;;;;;;4960743;28;20919;-64
2022/03/30 04:59:42;;;;;;;5.72;2.05;;;7.00;99.90;;;;;;4971468;28;20106;-64
2022/03/30 05:02:08;;;;;;;4.05;1.23;;;7.00;99.90;;;;;;4971024;28;20042;-64
2022/03/30 05:04:34;;;;;;;7.38;1.88;;;7.00;99.90;;;;;;4969526;28;20525;-64
2022/03/30 05:06:59;;;;;;;6.80;2.08;;;7.00;99.90;;;;;;4977071;28;20042;-64
2022/03/30 05:09:25;;;;;;;4.55;2.25;;;7.00;99.90;;;;;;4989973;28;20057;-64
2022/03/30 05:11:51;;;;;;;3.40;1.83;;;7.00;99.90;;;;;;4959059;28;20038;-64
2022/03/30 05:14:17;;;;;;;7.20;2.50;;;7.00;99.90;;;;;;4978442;28;20050;-64
2022/03/30 05:16:43;;;;;;;6.35;2.47;;;7.00;99.90;;;;;;4982631;28;20129;-64
2022/03/30 05:19:09;;;;;;;4.82;2.50;;;7.00;99.90;;;;;;4967472;28;20054;-64
2022/03/30 05:21:35;;;;;;;7.18;3.13;;;7.00;99.90;;;;;;4963803;28;20055;-64
2022/03/30 05:24:00;;;;;;;6.13;2.20;;;7.00;99.90;;;;;;4996821;28;20070;-64
2022/03/30 05:26:28;;;;;;;4.82;2.55;;;6.90;99.90;;;;;;4966572;28;20042;-64
2022/03/30 05:28:54;;;;;;;8.05;4.25;;;6.90;99.90;;;;;;4967878;28;20047;-64
2022/03/30 05:31:19;;;;;;;5.35;2.55;;;6.80;99.90;;;;;;4968246;28;20045;-64
2022/03/30 05:33:45;;;;;;;8.00;2.20;;;6.80;99.90;;;;;;4972296;28;20113;-64
2022/03/30 05:36:12;;;;;;;4.18;1.58;;;6.80;99.90;;;;;;4970042;28;20054;-64
2022/03/30 05:38:38;;;;;;;2.88;1.27;;;6.80;99.90;;;;;;4976716;28;20062;-64
2022/03/30 05:41:03;;;;;;;6.18;1.38;;;6.80;99.90;;;;;;4971036;28;20050;-64
2022/03/30 05:43:29;;;;;;;10.35;2.03;;;6.80;99.90;;;;;;4972533;28;20042;-64
2022/03/30 05:45:55;;;;;;;3.17;1.38;;;6.80;99.90;;;;;;4961465;28;20087;-65
2022/03/30 05:48:21;;;;;;;9.48;3.03;;;6.80;99.90;;;;;;4959830;28;20687;-64
2022/03/30 05:50:47;;;;;;;3.85;1.55;;;6.80;99.90;;;;;;4963155;28;20093;-64
2022/03/30 05:53:17;;;;;;;5.70;1.95;;;6.80;99.90;;;;;;4962855;28;20083;-64
2022/03/30 05:55:44;;;;;;;12.82;2.33;;;6.90;99.90;;;;;;4965019;28;20056;-64
2022/03/30 05:58:10;;;;;;;7.18;1.60;;;6.90;99.90;;;;;;4989725;28;20140;-64
2022/03/30 06:00:36;;;;;;;6.88;1.50;;;6.90;99.90;;;;;;4972238;28;20785;-64
2022/03/30 06:03:02;;;;;;;5.82;1.83;;;7.00;99.90;;;;;;4965540;28;20085;-64
2022/03/30 06:05:28;;;;;;;3.38;1.60;;;7.00;99.90;;;;;;4953405;28;20924;-64
2022/03/30 06:07:57;;;;;;;5.18;1.80;;;6.90;99.90;;;;;;4960648;28;20055;-64
2022/03/30 06:10:25;;;;;;;4.53;1.30;;;7.00;99.90;;;;;;4971132;28;20093;-64
2022/03/30 06:12:50;;;;;;;5.32;1.73;;;7.00;99.90;;;;;;4968034;28;20059;-64
2022/03/30 06:15:16;;;;;;;5.38;1.77;;;7.10;99.90;;;;;;4978212;28;20041;-64
2022/03/30 06:17:42;;;;;;;8.73;1.90;;;7.10;99.90;;;;;;4964109;28;20043;-64
2022/03/30 06:20:08;;;;;;;4.60;1.27;;;7.10;99.90;;;;;;4963063;28;20122;-64
2022/03/30 06:22:35;;;;;;;7.20;1.45;;;7.10;99.90;;;;;;4962623;28;20690;-64
2022/03/30 06:25:01;;;;;;;8.68;1.65;;;7.20;99.90;;;;;;4994194;28;20040;-64
2022/03/30 06:27:27;;;;;;;3.72;1.23;;;7.30;99.90;;;;;;4964988;28;20097;-64
2022/03/30 06:29:53;;;;;;;6.75;2.20;;;7.30;99.90;;;;;;4959728;28;20133;-64
2022/03/30 06:32:19;;;;;;;5.55;1.60;;;7.30;99.90;;;;;;4964367;28;20043;-64
2022/03/30 06:34:44;;;;;;;16.58;3.90;;;7.30;99.90;;;;;;4972624;28;20610;-64
2022/03/30 06:37:10;;;;;;;8.68;2.33;;;7.30;99.90;;;;;;4968049;28;20069;-64
2022/03/30 06:39:36;;;;;;;10.50;1.38;;;7.30;99.90;;;;;;4969799;28;20034;-64
2022/03/30 06:42:03;;;;;;;13.90;1.88;;;7.40;99.90;;;;;;4976159;28;20088;-63
2022/03/30 06:44:29;;;;;;;9.55;1.88;;;7.40;99.90;;;;;;4953869;28;20051;-64
2022/03/30 06:46:54;;;;;;;9.82;1.73;;;7.50;99.90;;;;;;4966894;28;20055;-63
2022/03/30 06:49:20;;;;;;;6.30;1.55;;;7.50;99.90;;;;;;4970715;28;20050;-63
2022/03/30 06:51:46;;;;;;;5.25;1.30;;;7.50;99.90;;;;;;4972286;28;20061;-64
2022/03/30 06:54:11;;;;;;;7.68;1.65;;;7.50;99.90;;;;;;4968657;28;20174;-64
2022/03/30 06:56:37;;;;;;;7.32;1.45;;;7.60;99.90;;;;;;4965229;28;20103;-64
2022/03/30 06:59:02;;;;;;;7.32;1.63;;;7.70;99.90;;;;;;4966341;28;20047;-64
2022/03/30 07:01:28;;;;;;;6.57;1.38;;;7.70;99.90;;;;;;4965772;28;20050;-64
2022/03/30 07:03:54;;;;;;;9.63;1.88;;;7.70;99.90;;;;;;4966107;28;20047;-64
2022/03/30 07:06:20;;;;;;;7.90;1.27;;;7.80;99.90;;;;;;4950429;28;20051;-64
2022/03/30 07:11:29;;;;;;;7.88;1.48;;;7.80;99.90;;;;;;4956970;28;20054;-64
2022/03/30 07:13:57;;;;;;;5.13;1.30;;;7.90;99.90;;;;;;4980435;28;20043;-64
2022/03/30 07:16:23;;;;;;;10.15;1.73;;;7.90;99.90;;;;;;4959259;28;20043;-64
2022/03/30 07:18:49;;;;;;;11.55;2.20;;;7.90;99.90;;;;;;4962864;28;20046;-63
2022/03/30 07:21:15;;;;;;;4.63;1.52;;;8.10;99.90;;;;;;4965098;28;20102;-64
2022/03/30 07:23:40;;;;;;;7.80;2.85;;;8.10;99.90;;;;;;4955300;28;20047;-64
2022/03/30 07:26:06;;;;;;;9.82;1.42;;;8.10;99.90;;;;;;4957884;28;20483;-64
2022/03/30 07:28:32;;;;;;;8.50;2.13;;;8.20;99.90;;;;;;4960716;28;20053;-64
2022/03/30 07:30:57;;;;;;;8.05;1.58;;;8.20;99.90;;;;;;4963542;28;20047;-64
2022/03/30 07:33:23;;;;;;;5.93;1.27;;;8.20;99.90;;;;;;4957583;28;20047;-64
2022/03/30 07:35:49;;;;;;;6.80;1.48;;;8.30;99.90;;;;;;4961886;28;20067;-64
2022/03/30 07:38:19;;;;;;;6.68;1.30;;;8.30;99.90;;;;;;4964660;28;20514;-63
2022/03/30 07:40:48;;;;;;;17.10;1.80;;;8.40;99.90;;;;;;4955153;28;20129;-63
2022/03/30 07:43:15;;;;;;;9.32;1.42;;;8.40;99.90;;;;;;4954984;28;20487;-63
2022/03/30 07:45:41;;;;;;;9.95;2.30;;;8.40;99.90;;;;;;4956221;28;20043;-63
2022/03/30 07:48:08;;;;;;;8.02;1.40;;;8.50;99.90;;;;;;4962755;28;20054;-63
2022/03/30 07:50:35;;;;;;;10.55;1.98;;;8.50;99.90;;;;;;4950636;28;20913;-63
2022/03/30 07:53:01;;;;;;;6.40;1.05;;;8.60;99.90;;;;;;4963935;28;20051;-63
2022/03/30 07:55:28;;;;;;;4.85;1.08;;;8.70;99.90;;;;;;4959228;28;20047;-63
2022/03/30 07:57:54;;;;;;;5.07;1.45;;;8.60;99.90;;;;;;4951656;28;20526;-63
2022/03/30 08:00:21;;;;;;;3.60;0.98;;;8.70;99.90;;;;;;4960501;28;20051;-63
2022/03/30 08:02:48;;;;;;;8.68;1.38;;;8.60;99.90;;;;;;4963981;28;20051;-63
2022/03/30 08:05:15;;;;;;;5.70;1.20;;;8.60;99.90;;;;;;4969903;28;20058;-63
2022/03/30 08:07:45;;;;;;;5.68;1.52;;;8.60;99.90;;;;;;4964694;28;20054;-64
2022/03/30 08:10:11;;;;;;;3.53;0.98;;;8.60;99.90;;;;;;4956321;28;20047;-63
2022/03/30 08:12:40;;;;;;;7.25;1.92;;;8.50;99.90;;;;;;4954819;28;20039;-63
2022/03/30 08:15:07;;;;;;;7.50;1.13;;;8.50;99.90;;;;;;4962524;28;20031;-63
2022/03/30 08:17:32;;;;;;;4.68;1.17;;;8.60;99.90;;;;;;4951324;28;20130;-63
2022/03/30 08:19:59;;;;;;;11.45;2.08;;;8.60;99.90;;;;;;4950856;28;20123;-63
2022/03/30 08:22:28;;;;;;;8.63;1.60;;;8.60;99.90;;;;;;4959084;28;20193;-63
2022/03/30 08:25:00;;;;;;;4.43;1.10;;;8.70;99.90;;;;;;4955866;28;20051;-63
2022/03/30 08:27:28;;;;;;;8.88;2.08;;;8.80;99.90;;;;;;4959126;28;20034;-63
2022/03/30 08:29:54;;;;;;;5.82;1.10;;;8.90;99.90;;;;;;4959190;28;20117;-63
2022/03/30 08:32:21;;;;;;;8.85;1.63;;;8.90;99.90;;;;;;4961131;28;20036;-63
2022/03/30 08:34:51;;;;;;;8.48;2.30;;;8.90;99.90;;;;;;4955131;28;20046;-63
2022/03/30 08:37:17;;;;;;;6.93;1.48;;;8.90;99.90;;;;;;4969153;28;20055;-63
2022/03/30 08:39:43;;;;;;;5.55;1.45;;;8.90;99.90;;;;;;4966586;28;20038;-63
2022/03/30 08:42:09;;;;;;;16.30;2.35;;;9.00;99.90;;;;;;4953864;28;20502;-63
2022/03/30 08:44:36;;;;;;;5.05;1.40;;;9.10;99.90;;;;;;4957755;28;20630;-62
2022/03/30 08:47:04;;;;;;;6.57;1.20;;;9.20;99.90;;;;;;4958254;28;20154;-62
2022/03/30 08:49:37;;;;;;;3.85;2.63;;;9.30;99.90;;;;;;4961050;28;20380;-62
2022/03/30 08:52:05;;;;;;;4.28;1.10;;;9.50;99.90;;;;;;4958463;28;20051;-63
2022/03/30 08:54:31;;;;;;;8.43;2.97;;;9.70;99.90;;;;;;4966529;28;20047;-63
2022/03/30 08:56:57;;;;;;;5.85;1.65;;;9.70;99.90;;;;;;4963608;28;20391;-63
2022/03/30 08:59:24;;;;;;;5.00;1.27;;;9.70;99.90;;;;;;4953819;28;20058;-63
2022/03/30 09:01:50;;;;;;;2.88;1.50;;;9.60;99.90;;;;;;4953358;28;20047;-63
2022/03/30 09:04:18;;;;;;;5.68;1.60;;;9.60;99.90;;;;;;4950026;28;20428;-63
2022/03/30 09:06:49;;;;;;;7.05;2.00;;;9.70;99.90;;;;;;4982003;28;20130;-63
2022/03/30 09:09:18;;;;;;;4.10;1.08;;;9.80;99.90;;;;;;4974166;28;20057;-63
2022/03/30 09:11:53;;;;;;;2.83;1.10;;;10.00;99.90;;;;;;4968725;28;20043;-63
2022/03/30 09:14:21;;;;;;;5.05;1.10;;;10.20;99.90;;;;;;4959335;28;20043;-63
2022/03/30 09:16:49;;;;;;;5.85;0.95;;;10.40;99.90;;;;;;4968356;28;20046;-63
2022/03/30 09:19:17;;;;;;;7.13;1.60;;;10.50;99.90;;;;;;4958983;28;20043;-63
2022/03/30 09:21:58;;;;;;;5.07;1.40;;;10.70;99.90;;;;;;4952220;28;20054;-63
2022/03/30 09:24:29;;;;;;;3.70;1.15;;;10.60;99.90;;;;;;4957124;28;20118;-62
2022/03/30 09:26:57;;;;;;;3.70;0.68;;;10.80;99.90;;;;;;4969064;28;20050;-62
2022/03/30 09:29:25;;;;;;;6.72;1.15;;;10.60;99.90;;;;;;4962451;28;20122;-63
2022/03/30 09:31:52;;;;;;;6.40;1.17;;;10.70;99.90;;;;;;4959940;28;20082;-62
2022/03/30 09:34:19;;;;;;;10.38;1.30;;;10.40;99.90;;;;;;4967636;28;20049;-63
2022/03/30 09:36:46;;;;;;;4.72;1.23;;;10.50;99.90;;;;;;4963746;28;20129;-62
2022/03/30 09:39:31;;;;;;;3.03;0.77;;;10.80;99.90;;;;;;4956826;28;20138;-62
2022/03/30 09:41:59;;;;;;;3.83;0.80;;;11.10;99.90;;;;;;4964377;28;20051;-63
2022/03/30 09:44:28;;;;;;;6.13;0.88;;;11.10;99.90;;;;;;4969325;28;20045;-62
2022/03/30 09:46:55;;;;;;;5.00;0.95;;;11.30;99.90;;;;;;4971560;28;20569;-63
2022/03/30 09:49:39;;;;;;;3.30;0.80;;;11.30;99.90;;;;;;4956065;28;20082;-64
2022/03/30 09:52:19;;;;;;;4.63;1.00;;;11.20;99.90;;;;;;4961270;28;20050;-63
2022/03/30 09:55:00;;;;;;;12.98;3.90;;;11.20;99.90;;;;;;4953542;29;20399;-63
2022/03/30 09:57:40;;;;;;;7.57;2.97;;;11.50;99.90;;;;;;4951380;28;20767;-63
2022/03/30 10:00:18;;;;;;;7.47;3.33;;;11.80;99.90;;;;;;4953422;28;20047;-63
2022/03/30 10:02:48;;;;;;;3.13;0.80;;;11.80;99.90;;;;;;4952266;28;20062;-63
2022/03/30 10:05:16;;;;;;;3.47;0.57;;;11.50;99.30;;;;;;4966839;28;20047;-63
2022/03/30 10:07:42;;;;;;;9.57;2.65;;;11.40;99.50;;;;;;4955911;28;20135;-63
2022/03/30 10:10:11;;;;;;;2.28;1.17;;;11.50;99.50;;;;;;4953330;28;20118;-63
2022/03/30 10:12:37;;;;;;;5.88;1.42;;;11.90;99.80;;;;;;4969220;28;20035;-63
2022/03/30 10:15:04;;;;;;;7.40;2.00;;;12.10;99.80;;;;;;4953283;28;20499;-63
2022/03/30 10:17:30;;;;;;;4.03;1.95;;;12.10;99.20;;;;;;4950221;28;20083;-63
2022/03/30 10:19:58;;;;;;;4.68;2.13;;;12.10;98.00;;;;;;4952960;28;20155;-63
2022/03/30 10:22:50;;;;;;;6.10;1.08;;;11.80;97.30;;;;;;4952568;29;20047;-63
2022/03/30 10:25:40;;;;;;;3.63;0.90;;;11.70;98.60;;;;;;4954223;28;20038;-65
2022/03/30 10:28:43;;;;;;;5.82;2.00;;;11.60;97.90;;;;;;4955964;28;20452;-64
2022/03/30 10:31:10;;;;;;;5.38;1.00;;;11.50;98.40;;;;;;4981010;28;20069;-64
2022/03/30 10:33:44;;;;;;;5.40;2.22;;;11.50;98.50;;;;;;4958985;28;20043;-64
2022/03/30 10:36:32;;;;;;;3.80;1.35;;;11.20;99.00;;;;;;4977223;28;20056;-64
2022/03/30 10:39:15;;;;;;;5.95;2.90;;;10.90;99.40;;;;;;4983701;28;20058;-64
2022/03/30 10:41:53;;;;;;;5.80;1.98;;;10.70;99.30;;;;;;5005865;28;20176;-64
2022/03/30 10:44:41;;;;;;;3.45;1.30;;;10.50;99.10;;;;;;4957456;28;20127;-64
2022/03/30 10:47:14;;;;;;;12.07;2.47;;;10.60;99.90;;;;;;4950457;29;20819;-64
2022/03/30 10:49:46;;;;;;;3.53;1.50;;;10.80;99.30;;;;;;4952250;29;20047;-64
2022/03/30 10:52:41;;;;;;;2.70;1.42;;;10.90;98.80;;;;;;4955434;28;20051;-64
2022/03/30 10:55:13;;;;;;;8.23;2.80;;;11.10;99.30;;;;;;4964706;28;20121;-64
2022/03/30 10:57:51;;;;;;;7.25;1.13;;;10.90;98.90;;;;;;4951785;28;20050;-64
2022/03/30 11:00:18;;;;;;;5.00;0.77;;;10.90;99.90;;;;;;4950079;28;20407;-64
2022/03/30 11:02:45;;;;;;;7.57;1.10;;;10.60;99.90;;;;;;4970890;28;20042;-64
2022/03/30 11:05:12;;;;;;;4.57;1.10;;;10.30;99.90;;;;;;4976292;28;20047;-64
2022/03/30 11:07:38;;;;;;;8.70;1.50;;;10.30;99.90;;;;;;4952133;28;20129;-64
2022/03/30 11:10:19;;;;;;;8.20;1.23;;;10.40;99.90;;;;;;4961453;28;20383;-64
2022/03/30 11:13:03;;;;;;;4.63;1.10;;;10.40;99.90;;;;;;4961288;28;20190;-64
2022/03/30 11:15:30;;;;;;;20.60;8.90;;;10.60;99.90;;;;;;4965563;28;20050;-64
2022/03/30 11:18:17;;;;;;;8.55;3.83;;;10.60;99.90;;;;;;4990579;28;20046;-64
2022/03/30 11:21:08;;;;;;;13.68;5.30;;;10.70;99.90;;;;;;4974749;28;20043;-64
2022/03/30 11:23:35;;;;;;;9.63;2.92;;;10.70;99.90;;;;;;4950756;28;20126;-64
2022/03/30 11:26:01;;;;;;;18.70;6.03;;;10.80;99.90;;;;;;4951533;29;20051;-64
2022/03/30 11:28:38;;;;;;;13.05;2.97;;;11.00;99.90;;;;;;4955134;28;20046;-64
2022/03/30 11:31:05;;;;;;;18.13;5.10;;;11.00;99.90;;;;;;4972074;28;20058;-64
2022/03/30 11:33:34;;;;;;;18.17;5.65;;;11.10;99.90;;;;;;4969982;28;20108;-64
2022/03/30 11:36:02;;;;;;;14.43;5.38;;;11.40;99.90;;;;;;4960610;28;20055;-64
2022/03/30 11:38:37;;;;;;;17.70;5.15;;;11.50;99.90;;;;;;4951207;28;20506;-65
2022/03/30 11:41:06;;;;;;;13.82;3.75;;;11.80;99.80;;;;;;4980448;28;20434;-64
2022/03/30 11:45:12;;;;;;;12.55;4.57;;;12.00;99.90;;;;;;4963322;28;20043;-65
2022/03/30 11:46:25;;;;;;;7.22;2.33;;;12.30;99.10;;;;;;4984565;28;20133;-65
2022/03/30 11:48:51;;;;;;;11.80;4.82;;;12.60;98.70;;;;;;4963033;28;20047;-64
2022/03/30 11:51:16;;;;;;;10.35;3.72;;;12.80;98.50;;;;;;4952452;28;20490;-66
2022/03/30 11:53:42;;;;;;;6.13;2.17;;;13.00;98.90;;;;;;4951531;28;20086;-65
2022/03/30 11:56:09;;;;;;;8.55;3.20;;;13.40;98.50;;;;;;4969705;28;20051;-65
2022/03/30 11:58:49;;;;;;;10.68;2.97;;;13.30;98.10;;;;;;4986019;28;20105;-66
2022/03/30 12:01:16;;;;;;;4.55;1.45;;;13.10;96.40;;;;;;4951082;28;20051;-65
2022/03/30 12:03:42;;;;;;;11.68;3.72;;;12.80;97.00;;;;;;4950620;29;20055;-66
2022/03/30 12:06:10;;;;;;;7.03;1.73;;;12.60;96.80;;;;;;4950401;28;20043;-65
2022/03/30 12:08:44;;;;;;;12.25;3.58;;;12.10;96.80;;;;;;4950573;28;20097;-60
2022/03/30 12:11:11;;;;;;;13.00;3.63;;;11.70;98.20;;;;;;4962763;28;20046;-61
2022/03/30 12:13:36;;;;;;;9.23;3.08;;;11.90;97.70;;;;;;4956831;28;20472;-61
2022/03/30 12:16:11;;;;;;;11.05;2.92;;;11.70;97.20;;;;;;4957565;28;20046;-60
2022/03/30 12:18:49;;;;;;;10.95;2.17;;;11.40;98.10;;;;;;4949882;28;20055;-65
2022/03/30 12:21:22;;;;;;;10.75;2.47;;;11.60;99.10;;;;;;4954533;28;20756;-65
2022/03/30 12:23:55;;;;;;;;;;;11.90;98.60;;;;;;4966451;28;20051;-65
2022/03/30 12:26:21;;;;;;;5.70;1.40;;;12.10;98.10;;;;;;4968868;28;19932;-65
2022/03/30 12:28:47;;;;;;;7.68;1.60;;;12.00;97.60;;;;;;4956978;28;20054;-65
2022/03/30 12:31:14;;;;;;;8.00;2.67;;;11.80;96.80;;;;;;4949616;28;20043;-65
2022/03/30 12:33:47;;;;;;;18.83;3.42;;;11.70;97.30;;;;;;4950680;28;20051;-66
2022/03/30 12:36:18;;;;;;;11.40;4.82;;;12.20;98.20;;;;;;4949051;29;20146;-65
2022/03/30 12:38:44;;;;;;;8.95;2.22;;;12.30;96.40;;;;;;4982414;28;20141;-65
2022/03/30 12:41:11;;;;;;;3.70;1.35;;;12.20;96.50;;;;;;4980973;28;20487;-65
2022/03/30 12:43:37;;;;;;;8.07;2.50;;;12.30;97.20;;;;;;4959035;28;20051;-65
2022/03/30 12:46:03;;;;;;;6.40;2.10;;;12.30;95.40;;;;;;4949206;28;20039;-65
2022/03/30 12:48:34;;;;;;;15.20;2.00;;;12.00;95.80;;;;;;4950339;28;20463;-65
2022/03/30 12:51:02;;;;;;;9.32;2.40;;;12.00;96.70;;;;;;4964440;28;20066;-65
2022/03/30 12:53:34;;;;;;;4.05;1.58;;;11.90;96.60;;;;;;4967444;28;20046;-65
2022/03/30 12:56:20;;;;;;;14.40;2.88;;;12.20;98.70;;;;;;4989595;28;20121;-65
2022/03/30 12:59:01;;;;;;;6.20;1.75;;;11.90;96.90;;;;;;4986379;28;20042;-65
2022/03/30 13:01:35;;;;;;;14.00;3.13;;;11.70;96.40;;;;;;4949121;28;20059;-65